Airfield :
LOGIN :

Register | Disclaimer

   EN    FR    IT 

 










Legend :    VFR   Marginal VFR   IFR   Intensive IFR   Very Intensive IFR
Visi :
Ceiling :
>= 8 km
>= 3000ft
5 to 8 km
1000 to 3000 ft
1500m to 5 km
500 to 1000 ft
800 to 1500m
200 to 500 ft
< 800m
< 200 ft
Symbols :   Thunderstorms  Fog  Heavy snow  Heavy precipitations  Wind > 20 kt
SIGMETs :     Misc.  Thunderstorms  Icing  Turbulence  Mountain Waves  Volcanic Ashes






- Airport Elevation : 682 ft
- IATA code : VTB


UMII - Vitebsk

CURRENT METAR :
  • 041800Z 28005MPS 9999 SCT036CB 04/M03 Q1021 R05/D TEMPO 2000 SHRA BKN005

EXPIRED METARs :
  • 041730Z 27003G06MPS 9999 BKN035CB 05/M03 Q1021 R23/D TEMPO 2000 SHRA BKN005
  • 041700Z 25006G09MPS 9999 BKN035CB 05/M03 Q1020 R23/D TEMPO 2000 SHRA BKN005
  • 041600Z 26004MPS 9999 SCT036CB 07/M05 Q1019 TEMPO 2000 SHRA BKN005

TAF TAF UMII
Valid from the 04 at 18:00 until the 05 at 03:00 UTC


041702Z 0418/0503 28003G08MPS 6000 BKN007
TEMPO 0418/0503 VRB10MPS 2000 SHRA BKN005 BKN012CB



MET'MAP, your aeronautical weather chart ! - Copyright ORBIFLY December 2007 - Disclaimer

ORBIFLY MET'MAP TEAM :

Programming & Development : Alexandra Zaïnal
Concept & original design : Baudouin d'Aumeries
Assistance for programming : Marc-Olivier Méhu
Technical & hardware support : Manuel Goepfert

Contact : metmap@orbifly.com




SOURCES & CREDITS :

   NOAA